createdAt,value
2019-03-20T00:01:18.872Z,5.97
2019-03-20T00:03:46.849Z,5.95
2019-03-20T00:06:14.909Z,7.20
2019-03-20T00:08:42.859Z,5.85
2019-03-20T00:11:10.823Z,5.72
2019-03-20T00:13:38.795Z,8.60
2019-03-20T00:16:06.761Z,9.13
2019-03-20T00:18:34.748Z,7.53
2019-03-20T00:21:02.708Z,7.12
2019-03-20T00:23:30.670Z,7.47
2019-03-20T00:25:58.677Z,6.90
2019-03-20T00:28:26.650Z,6.65
2019-03-20T00:30:54.628Z,6.12
2019-03-20T00:33:22.661Z,5.55
2019-03-20T00:35:50.659Z,5.45
2019-03-20T00:38:18.624Z,6.40
2019-03-20T00:40:46.594Z,5.60
2019-03-20T00:43:14.564Z,6.78
2019-03-20T00:45:42.524Z,7.05
2019-03-20T00:48:10.502Z,7.62
2019-03-20T00:50:38.459Z,6.62
2019-03-20T00:53:06.440Z,6.55
2019-03-20T00:55:34.446Z,6.00
2019-03-20T00:58:02.430Z,7.58
2019-03-20T01:00:30.401Z,8.55
2019-03-20T01:02:58.367Z,8.43
2019-03-20T01:05:26.332Z,8.00
2019-03-20T01:07:54.334Z,7.58
2019-03-20T01:10:22.852Z,6.87
2019-03-20T01:12:50.816Z,6.30
2019-03-20T01:15:18.788Z,6.22
2019-03-20T01:17:46.766Z,6.67
2019-03-20T01:20:16.531Z,6.45
2019-03-20T01:22:44.521Z,6.27
2019-03-20T01:25:12.470Z,6.78
2019-03-20T01:27:40.445Z,7.33
2019-03-20T01:30:11.822Z,6.92
2019-03-20T01:32:39.797Z,7.85
2019-03-20T01:35:07.760Z,9.05
2019-03-20T01:37:35.732Z,7.28
2019-03-20T01:40:04.569Z,8.10
2019-03-20T01:42:32.551Z,6.72
2019-03-20T01:45:00.604Z,7.45
2019-03-20T01:47:28.640Z,7.33
2019-03-20T01:49:56.604Z,6.53
2019-03-20T01:52:24.566Z,6.70
2019-03-20T01:54:52.551Z,6.35
2019-03-20T01:57:20.508Z,7.58
2019-03-20T01:59:48.492Z,8.78
2019-03-20T02:02:16.474Z,7.53
2019-03-20T02:04:44.468Z,7.20
2019-03-20T02:07:12.435Z,6.90
2019-03-20T02:09:40.429Z,6.33
2019-03-20T02:12:08.388Z,7.03
2019-03-20T02:14:36.373Z,7.55
2019-03-20T02:17:04.345Z,6.97
2019-03-20T02:19:32.308Z,9.20
2019-03-20T02:22:00.308Z,10.65
2019-03-20T02:24:28.287Z,9.28
2019-03-20T02:26:56.272Z,9.33
2019-03-20T02:29:24.235Z,6.58
2019-03-20T02:31:52.224Z,6.05
2019-03-20T02:34:20.195Z,6.33
2019-03-20T02:36:48.165Z,8.03
2019-03-20T02:39:16.192Z,7.97
2019-03-20T02:41:44.173Z,5.78
2019-03-20T02:44:12.140Z,6.50
2019-03-20T02:46:40.116Z,9.93
2019-03-20T02:49:08.094Z,9.43
2019-03-20T02:51:36.063Z,7.83
2019-03-20T02:54:04.076Z,10.80
2019-03-20T02:56:32.042Z,11.33
2019-03-20T02:59:00.037Z,8.30
2019-03-20T03:01:28.002Z,10.48
2019-03-20T03:03:55.964Z,9.45
2019-03-20T03:06:23.944Z,6.33
2019-03-20T03:08:51.948Z,6.75
2019-03-20T03:11:19.972Z,7.42
2019-03-20T03:13:47.936Z,7.92
2019-03-20T03:16:15.908Z,8.40
2019-03-20T03:18:43.868Z,8.45
2019-03-20T03:21:11.854Z,7.87
2019-03-20T03:23:39.819Z,6.97
2019-03-20T03:26:07.808Z,6.40
2019-03-20T03:28:35.787Z,7.70
2019-03-20T03:31:03.771Z,11.05
2019-03-20T03:33:31.802Z,8.20
2019-03-20T03:35:59.776Z,14.23
2019-03-20T03:38:27.743Z,10.85
2019-03-20T03:40:55.717Z,11.28
2019-03-20T03:43:24.546Z,9.38
2019-03-20T03:45:52.744Z,8.75
2019-03-20T03:48:20.711Z,8.08
2019-03-20T03:50:48.685Z,8.65
2019-03-20T03:53:16.686Z,8.38
2019-03-20T03:55:44.640Z,8.08
2019-03-20T03:58:12.634Z,8.95
2019-03-20T04:00:40.613Z,7.50
2019-03-20T04:03:08.572Z,6.90
2019-03-20T04:05:36.551Z,9.55
2019-03-20T04:08:04.523Z,14.75
2019-03-20T04:10:32.507Z,9.58
2019-03-20T04:13:00.478Z,14.35
2019-03-20T04:15:28.453Z,10.35
2019-03-20T04:17:56.421Z,9.95
2019-03-20T04:20:24.422Z,8.73
2019-03-20T04:22:52.401Z,7.83
2019-03-20T04:25:20.384Z,8.43
2019-03-20T04:27:48.385Z,9.08
2019-03-20T04:30:18.026Z,8.60
2019-03-20T04:32:46.001Z,7.87
2019-03-20T04:35:13.977Z,9.05
2019-03-20T04:37:41.936Z,7.92
2019-03-20T04:40:11.540Z,7.42
2019-03-20T04:42:39.515Z,7.78
2019-03-20T04:45:08.862Z,14.93
2019-03-20T04:47:36.827Z,16.90
2019-03-20T04:50:06.387Z,12.40
2019-03-20T04:52:34.353Z,11.08
2019-03-20T04:55:02.331Z,11.57
2019-03-20T04:57:30.317Z,9.03
2019-03-20T04:59:58.286Z,9.90
2019-03-20T05:02:26.245Z,14.60
2019-03-20T05:04:54.343Z,13.80
2019-03-20T05:07:22.663Z,10.53
2019-03-20T05:09:50.739Z,8.93
2019-03-20T05:12:19.280Z,12.23
2019-03-20T05:14:47.278Z,12.68
2019-03-20T05:17:15.313Z,12.73
2019-03-20T05:19:43.333Z,13.70
2019-03-20T05:22:11.314Z,13.25
2019-03-20T05:24:39.287Z,16.57
2019-03-20T05:27:07.260Z,10.78
2019-03-20T05:29:35.246Z,9.85
2019-03-20T05:32:03.210Z,15.15
2019-03-20T05:34:31.191Z,9.70
2019-03-20T05:37:09.566Z,8.95
2019-03-20T05:39:28.860Z,9.10
2019-03-20T05:41:56.839Z,9.10
2019-03-20T05:44:24.806Z,9.63
2019-03-20T05:46:52.807Z,11.97
2019-03-20T05:49:20.774Z,9.83
2019-03-20T05:51:48.754Z,9.10
2019-03-20T05:54:16.715Z,8.45
2019-03-20T05:56:44.700Z,9.63
2019-03-20T05:59:12.686Z,10.53
2019-03-20T06:01:40.664Z,10.05
2019-03-20T06:04:08.631Z,11.45
2019-03-20T06:06:36.611Z,12.00
2019-03-20T06:09:05.854Z,10.60
2019-03-20T06:11:33.820Z,9.68
2019-03-20T06:14:01.795Z,9.50
2019-03-20T06:16:29.763Z,8.63
2019-03-20T06:18:57.745Z,10.05
2019-03-20T06:21:25.712Z,9.13
2019-03-20T06:23:53.691Z,7.87
2019-03-20T06:26:21.652Z,7.53
2019-03-20T06:28:49.639Z,7.45
2019-03-20T06:31:18.839Z,7.10
2019-03-20T06:33:46.935Z,6.65
2019-03-20T06:36:14.919Z,8.65
2019-03-20T06:38:42.887Z,6.85
2019-03-20T06:41:10.848Z,6.58
2019-03-20T06:43:38.823Z,6.40
2019-03-20T06:46:06.787Z,7.78
2019-03-20T06:48:34.769Z,7.30
2019-03-20T06:51:02.736Z,7.10
2019-03-20T06:53:30.709Z,6.92
2019-03-20T06:55:58.670Z,6.75
2019-03-20T06:58:26.635Z,6.10
2019-03-20T07:00:58.947Z,6.00
2019-03-20T07:03:31.455Z,6.58
2019-03-20T07:06:06.735Z,6.45
2019-03-20T07:08:36.335Z,5.53
2019-03-20T07:11:08.285Z,6.28
2019-03-20T07:13:36.250Z,6.10
2019-03-20T07:16:04.479Z,5.60
2019-03-20T07:18:32.516Z,6.40
2019-03-20T07:21:00.506Z,5.83
2019-03-20T07:23:28.483Z,5.90
2019-03-20T07:25:56.455Z,6.20
2019-03-20T07:28:24.419Z,5.83
2019-03-20T07:30:52.387Z,6.10
2019-03-20T07:33:20.350Z,7.50
2019-03-20T07:35:48.328Z,10.82
2019-03-20T07:38:16.308Z,13.55
2019-03-20T07:40:44.282Z,12.58
2019-03-20T07:43:12.319Z,9.18
2019-03-20T07:45:40.313Z,8.65
2019-03-20T07:48:08.264Z,6.78
2019-03-20T07:50:36.233Z,6.00
2019-03-20T07:53:04.199Z,5.85
2019-03-20T07:55:32.179Z,6.00
2019-03-20T07:58:00.143Z,5.67
2019-03-20T08:00:28.122Z,5.28
2019-03-20T08:02:56.082Z,5.85
2019-03-20T08:05:29.288Z,5.65
2019-03-20T08:07:54.063Z,5.47
2019-03-20T08:10:22.051Z,5.67
2019-03-20T08:12:50.038Z,5.37
2019-03-20T08:15:18.081Z,4.67
2019-03-20T08:17:46.047Z,5.30
2019-03-20T08:20:21.184Z,5.20
2019-03-20T08:22:49.151Z,5.30
2019-03-20T08:25:17.167Z,5.33
2019-03-20T08:27:45.148Z,4.80
2019-03-20T08:30:14.382Z,4.70
2019-03-20T08:32:42.339Z,4.60
2019-03-20T08:35:11.092Z,5.00
2019-03-20T08:37:39.064Z,4.95
2019-03-20T08:40:08.595Z,4.92
2019-03-20T08:42:36.566Z,5.10
2019-03-20T08:45:05.912Z,5.80
2019-03-20T08:47:33.860Z,6.17
2019-03-20T08:50:01.831Z,4.60
2019-03-20T08:52:29.821Z,5.55
2019-03-20T08:54:57.798Z,5.22
2019-03-20T08:57:25.775Z,4.70
2019-03-20T08:59:53.752Z,4.62
2019-03-20T09:02:21.731Z,4.60
2019-03-20T09:04:49.679Z,5.15
2019-03-20T09:07:17.665Z,5.72
2019-03-20T09:09:45.642Z,5.45
2019-03-20T09:12:13.612Z,5.17
2019-03-20T09:14:41.583Z,6.15
2019-03-20T09:17:09.547Z,6.50
2019-03-20T09:19:37.551Z,5.95
2019-03-20T09:22:05.499Z,5.35
2019-03-20T09:24:33.478Z,4.85
2019-03-20T09:27:01.451Z,5.22
2019-03-20T09:29:35.949Z,4.65
2019-03-20T09:31:59.124Z,4.67
2019-03-20T09:34:27.105Z,5.03
2019-03-20T09:36:55.060Z,5.28
2019-03-20T09:39:23.011Z,4.83
2019-03-20T09:41:50.984Z,5.20
2019-03-20T09:44:18.977Z,4.62
2019-03-20T09:46:46.948Z,4.85
2019-03-20T09:49:14.911Z,4.53
2019-03-20T09:51:42.903Z,5.08
2019-03-20T09:54:10.901Z,4.90
2019-03-20T09:56:38.863Z,4.25
2019-03-20T09:59:06.840Z,4.20
2019-03-20T10:01:34.838Z,4.50
2019-03-20T10:04:02.803Z,4.80
2019-03-20T10:06:30.769Z,4.20
2019-03-20T10:08:58.766Z,3.98
2019-03-20T10:11:26.775Z,4.78
2019-03-20T10:13:54.738Z,4.58
2019-03-20T10:16:22.818Z,4.25
2019-03-20T10:18:50.810Z,4.42
2019-03-20T10:21:18.801Z,5.12
2019-03-20T10:23:46.801Z,4.42
2019-03-20T10:26:14.779Z,4.62
2019-03-20T10:28:42.750Z,4.67
2019-03-20T10:31:10.772Z,4.90
2019-03-20T10:33:38.740Z,4.92
2019-03-20T10:36:07.616Z,4.45
2019-03-20T10:38:35.679Z,4.75
2019-03-20T10:41:03.653Z,5.53
2019-03-20T10:43:31.635Z,5.00
2019-03-20T10:45:59.614Z,4.97
2019-03-20T10:48:27.621Z,4.58
2019-03-20T10:50:55.563Z,4.37
2019-03-20T10:53:23.546Z,4.90
2019-03-20T10:55:51.995Z,4.97
2019-03-20T10:58:20.160Z,5.35
2019-03-20T11:00:48.155Z,4.58
2019-03-20T11:03:16.125Z,4.58
2019-03-20T11:05:44.121Z,4.83
2019-03-20T11:08:13.128Z,4.22
2019-03-20T11:10:41.425Z,4.78
2019-03-20T11:13:09.505Z,4.87
2019-03-20T11:15:37.475Z,6.12
2019-03-20T11:18:05.479Z,4.80
2019-03-20T11:20:33.590Z,5.28
2019-03-20T11:23:01.545Z,4.92
2019-03-20T11:25:29.532Z,4.80
2019-03-20T11:27:57.564Z,4.17
2019-03-20T11:30:32.049Z,4.45
2019-03-20T11:33:00.015Z,4.20
2019-03-20T11:35:28.007Z,4.58
2019-03-20T11:37:55.978Z,3.95
2019-03-20T11:40:24.720Z,3.72
2019-03-20T11:42:52.713Z,3.95
2019-03-20T11:45:23.298Z,3.87
2019-03-20T11:47:50.465Z,4.05
2019-03-20T11:50:25.740Z,3.72
2019-03-20T11:52:53.728Z,3.92
2019-03-20T11:55:21.719Z,3.83
2019-03-20T11:57:49.726Z,3.35
2019-03-20T12:00:20.932Z,3.25
2019-03-20T12:02:48.901Z,3.67
2019-03-20T12:05:16.872Z,3.05
2019-03-20T12:07:44.836Z,2.80
2019-03-20T12:10:17.472Z,3.45
2019-03-20T12:12:45.453Z,3.80
2019-03-20T12:15:34.370Z,3.22
2019-03-20T12:18:02.472Z,3.45
2019-03-20T12:20:30.441Z,3.42
2019-03-20T12:22:58.402Z,3.50
2019-03-20T12:25:27.146Z,3.50
2019-03-20T12:27:55.132Z,3.72
2019-03-20T12:30:33.785Z,3.60
2019-03-20T12:33:01.757Z,3.45
2019-03-20T12:35:31.295Z,3.27
2019-03-20T12:37:59.277Z,3.67
2019-03-20T12:40:28.122Z,3.33
2019-03-20T12:42:56.115Z,3.67
2019-03-20T12:45:25.034Z,3.50
2019-03-20T12:47:53.016Z,3.92
2019-03-20T12:50:20.980Z,3.67
2019-03-20T12:52:48.963Z,3.47
2019-03-20T12:55:17.600Z,2.92
2019-03-20T12:57:45.570Z,2.87
2019-03-20T13:00:14.769Z,3.05
2019-03-20T13:02:42.763Z,3.00
2019-03-20T13:05:11.599Z,3.52
2019-03-20T13:07:39.579Z,2.90
2019-03-20T13:10:09.108Z,3.15
2019-03-20T13:12:37.162Z,3.00
2019-03-20T13:15:06.821Z,2.77
2019-03-20T13:17:34.783Z,2.90
2019-03-20T13:20:03.660Z,2.77
2019-03-20T13:22:31.631Z,2.92
2019-03-20T13:24:59.617Z,3.00
2019-03-20T13:27:27.593Z,2.72
2019-03-20T13:29:55.572Z,2.98
2019-03-20T13:32:23.558Z,3.08
2019-03-20T13:34:51.721Z,3.55
2019-03-20T13:37:19.722Z,2.98
2019-03-20T13:39:47.690Z,2.85
2019-03-20T13:42:15.656Z,3.15
2019-03-20T13:44:43.945Z,2.95
2019-03-20T13:47:11.892Z,2.83
2019-03-20T13:49:39.857Z,2.90
2019-03-20T13:52:07.935Z,2.95
2019-03-20T13:54:35.948Z,3.30
2019-03-20T13:57:03.931Z,3.27
2019-03-20T13:59:31.895Z,3.08
2019-03-20T14:01:59.888Z,3.62
2019-03-20T14:04:27.888Z,3.20
2019-03-20T14:06:55.856Z,2.83
2019-03-20T14:09:23.907Z,3.00
2019-03-20T14:11:51.955Z,3.22
2019-03-20T14:14:19.987Z,2.85
2019-03-20T14:16:48.025Z,2.77
2019-03-20T14:19:16.103Z,2.83
2019-03-20T14:21:44.059Z,3.05
2019-03-20T14:24:12.042Z,2.65
2019-03-20T14:26:40.037Z,2.62
2019-03-20T14:29:08.004Z,3.08
2019-03-20T14:31:36.139Z,3.15
2019-03-20T14:34:04.100Z,3.30
2019-03-20T14:36:32.083Z,2.85
2019-03-20T14:39:00.661Z,3.02
2019-03-20T14:41:28.748Z,2.85
2019-03-20T14:43:56.715Z,2.75
2019-03-20T14:46:24.683Z,2.90
2019-03-20T14:48:52.667Z,2.75
2019-03-20T14:51:20.627Z,2.90
2019-03-20T14:53:48.604Z,3.05
2019-03-20T14:56:18.238Z,3.85
2019-03-20T14:58:46.436Z,4.58
2019-03-20T15:01:14.410Z,3.17
2019-03-20T15:03:42.376Z,3.40
2019-03-20T15:06:10.366Z,3.08
2019-03-20T15:08:38.312Z,3.45
2019-03-20T15:11:06.288Z,4.05
2019-03-20T15:13:37.208Z,3.62
2019-03-20T15:16:06.803Z,4.67
2019-03-20T15:18:34.773Z,3.42
2019-03-20T15:21:02.758Z,2.87
2019-03-20T15:23:30.723Z,3.65
2019-03-20T15:25:58.744Z,4.15
2019-03-20T15:28:26.704Z,3.08
2019-03-20T15:30:54.680Z,4.00
2019-03-20T15:33:22.651Z,3.50
2019-03-20T15:35:50.618Z,2.52
2019-03-20T15:38:18.604Z,2.70
2019-03-20T15:40:55.898Z,2.52
2019-03-20T15:43:16.263Z,2.50
2019-03-20T15:45:44.248Z,2.85
2019-03-20T15:48:12.220Z,3.00
2019-03-20T15:50:40.203Z,3.27
2019-03-20T15:53:08.182Z,3.20
2019-03-20T15:55:37.264Z,3.02
2019-03-20T15:58:05.241Z,2.85
2019-03-20T16:00:33.295Z,3.45
2019-03-20T16:03:08.854Z,3.05
2019-03-20T16:05:36.833Z,3.02
2019-03-20T16:08:04.867Z,2.65
2019-03-20T16:10:32.838Z,3.30
2019-03-20T16:13:00.800Z,2.92
2019-03-20T16:15:28.775Z,3.17
2019-03-20T16:17:56.745Z,3.00
2019-03-20T16:20:24.721Z,3.80
2019-03-20T16:22:52.692Z,3.20
2019-03-20T16:25:22.335Z,4.62
2019-03-20T16:27:50.353Z,4.83
2019-03-20T16:30:19.080Z,4.60
2019-03-20T16:32:47.056Z,5.05
2019-03-20T16:35:15.017Z,4.80
2019-03-20T16:37:42.987Z,4.30
2019-03-20T16:40:17.792Z,4.55
2019-03-20T16:42:45.775Z,5.67
2019-03-20T16:45:15.141Z,4.58
2019-03-20T16:47:43.211Z,5.15
2019-03-20T16:50:12.704Z,4.87
2019-03-20T16:52:40.692Z,5.12
2019-03-20T16:55:09.960Z,4.75
2019-03-20T16:57:38.518Z,4.87
2019-03-20T17:00:14.188Z,4.92
2019-03-20T17:02:42.198Z,4.70
2019-03-20T17:05:10.217Z,5.15
2019-03-20T17:07:38.216Z,4.78
2019-03-20T17:10:16.999Z,4.72
2019-03-20T17:12:45.098Z,4.83
2019-03-20T17:15:14.660Z,5.58
2019-03-20T17:17:42.788Z,4.55
2019-03-20T17:20:10.883Z,4.50
2019-03-20T17:22:42.112Z,4.90
2019-03-20T17:25:09.571Z,4.67
2019-03-20T17:27:37.773Z,4.72
2019-03-20T17:30:10.225Z,4.30
2019-03-20T17:32:38.600Z,4.25
2019-03-20T17:35:09.243Z,3.92
2019-03-20T17:40:07.958Z,4.33
2019-03-20T17:42:35.934Z,6.17
2019-03-20T17:45:05.815Z,4.60
2019-03-20T17:47:33.871Z,5.00
2019-03-20T17:50:02.181Z,5.10
2019-03-20T17:52:30.876Z,6.08
2019-03-20T17:54:59.054Z,4.90
2019-03-20T17:57:27.180Z,5.00
2019-03-20T17:59:55.211Z,6.50
2019-03-20T18:02:24.262Z,5.53
2019-03-20T18:04:52.782Z,5.28
2019-03-20T18:07:20.933Z,35.63
2019-03-20T18:09:49.036Z,25.10
2019-03-20T18:12:17.047Z,13.20
2019-03-20T18:14:44.998Z,8.88
2019-03-20T18:17:13.085Z,6.33
2019-03-20T18:19:41.118Z,4.62
2019-03-20T18:22:12.801Z,4.58
2019-03-20T18:24:41.445Z,5.10
2019-03-20T18:27:09.542Z,4.87
2019-03-20T18:29:37.604Z,5.40
2019-03-20T18:32:05.656Z,6.40
2019-03-20T18:34:33.652Z,5.37
2019-03-20T18:37:01.625Z,6.03
2019-03-20T18:39:29.587Z,4.97
2019-03-20T18:41:58.124Z,5.40
2019-03-20T18:44:26.224Z,5.10
2019-03-20T18:46:54.205Z,5.08
2019-03-20T18:49:22.159Z,4.03
2019-03-20T18:51:50.136Z,12.37
2019-03-20T18:54:18.099Z,5.85
2019-03-20T18:56:46.077Z,5.35
2019-03-20T18:59:14.047Z,5.25
2019-03-20T19:01:42.031Z,5.03
2019-03-20T19:04:09.992Z,4.42
2019-03-20T19:06:38.048Z,4.92
2019-03-20T19:09:07.757Z,5.03
2019-03-20T19:11:35.811Z,4.77
2019-03-20T19:14:03.946Z,7.42
2019-03-20T19:16:31.928Z,7.40
2019-03-20T19:19:01.117Z,5.90
2019-03-20T19:21:29.051Z,6.40
2019-03-20T19:23:57.319Z,5.40
2019-03-20T19:26:25.305Z,6.58
2019-03-20T19:28:53.937Z,6.40
2019-03-20T19:31:21.908Z,6.22
2019-03-20T19:33:49.877Z,4.90
2019-03-20T19:36:17.843Z,4.40
2019-03-20T19:38:45.835Z,4.78
2019-03-20T19:41:13.805Z,5.72
2019-03-20T19:43:41.792Z,4.50
2019-03-20T19:46:09.755Z,6.65
2019-03-20T19:48:37.727Z,7.20
2019-03-20T19:51:05.701Z,5.22
2019-03-20T19:53:33.670Z,5.35
2019-03-20T19:56:02.030Z,6.62
2019-03-20T19:58:30.024Z,7.00
2019-03-20T20:00:57.999Z,6.42
2019-03-20T20:03:25.976Z,5.78
2019-03-20T20:05:53.941Z,6.45
2019-03-20T20:08:21.968Z,6.97
2019-03-20T20:10:49.899Z,6.55
2019-03-20T20:13:17.905Z,6.40
2019-03-20T20:15:45.860Z,6.12
2019-03-20T20:18:13.831Z,6.42
2019-03-20T20:20:41.801Z,6.72
2019-03-20T20:23:09.777Z,7.20
2019-03-20T20:25:37.749Z,8.20
2019-03-20T20:28:05.724Z,7.72
2019-03-20T20:30:33.763Z,7.95
2019-03-20T20:33:01.771Z,7.67
2019-03-20T20:35:29.799Z,8.93
2019-03-20T20:37:57.789Z,8.43
2019-03-20T20:40:28.858Z,8.65
2019-03-20T20:42:56.823Z,8.65
2019-03-20T20:45:24.801Z,8.33
2019-03-20T20:47:52.774Z,7.40
2019-03-20T20:50:20.760Z,8.03
2019-03-20T20:52:48.767Z,8.38
2019-03-20T20:55:17.478Z,8.00
2019-03-20T20:57:45.497Z,10.23
2019-03-20T21:00:14.842Z,13.00
2019-03-20T21:02:42.808Z,13.00
2019-03-20T21:05:10.795Z,14.53
2019-03-20T21:07:38.782Z,13.40
2019-03-20T21:10:08.411Z,14.43
2019-03-20T21:12:36.396Z,13.78
2019-03-20T21:15:05.235Z,12.93
2019-03-20T21:17:34.848Z,11.83
2019-03-20T21:20:03.083Z,12.15
2019-03-20T21:22:32.707Z,11.57
2019-03-20T21:25:00.678Z,10.75
2019-03-20T21:27:46.819Z,10.58
2019-03-20T21:30:32.799Z,10.72
2019-03-20T21:33:06.356Z,9.35
2019-03-20T21:35:52.638Z,10.10
2019-03-20T21:38:20.586Z,10.65
2019-03-20T21:40:53.307Z,12.20
2019-03-20T21:43:32.174Z,11.97
2019-03-20T21:46:04.745Z,12.63
2019-03-20T21:48:32.871Z,11.53
2019-03-20T21:51:02.534Z,11.35
2019-03-20T21:53:38.445Z,11.73
2019-03-20T21:56:17.115Z,11.65
2019-03-20T21:58:47.037Z,13.43
2019-03-20T22:01:16.730Z,14.07
2019-03-20T22:03:44.813Z,12.68
2019-03-20T22:06:32.982Z,11.80
2019-03-20T22:09:01.421Z,9.40
2019-03-20T22:11:31.015Z,7.28
2019-03-20T22:14:15.667Z,7.80
2019-03-20T22:17:02.115Z,7.87
2019-03-20T22:19:31.736Z,11.35
2019-03-20T22:22:19.643Z,9.43
2019-03-20T22:25:06.043Z,10.43
2019-03-20T22:27:41.363Z,9.00
2019-03-20T22:30:09.343Z,11.55
2019-03-20T22:32:38.938Z,9.43
2019-03-20T22:35:26.580Z,6.78
2019-03-20T22:37:55.447Z,7.92
2019-03-20T22:40:27.972Z,8.25
2019-03-20T22:43:00.495Z,9.38
2019-03-20T22:45:46.828Z,10.08
2019-03-20T22:48:33.086Z,9.15
2019-03-20T22:51:02.694Z,8.80
2019-03-20T22:53:37.989Z,9.78
2019-03-20T22:56:13.595Z,9.65
2019-03-20T22:58:41.195Z,8.23
2019-03-20T23:01:10.399Z,8.05
2019-03-20T23:03:40.008Z,7.45
2019-03-20T23:06:07.972Z,7.60
2019-03-20T23:08:35.960Z,7.92
2019-03-20T23:11:03.983Z,8.30
2019-03-20T23:13:41.101Z,8.28
2019-03-20T23:16:01.716Z,8.38
2019-03-20T23:18:29.755Z,8.30
2019-03-20T23:20:57.725Z,8.38
2019-03-20T23:23:25.772Z,8.00
2019-03-20T23:25:53.735Z,8.60
2019-03-20T23:28:21.780Z,8.28
2019-03-20T23:30:49.950Z,38.55
2019-03-20T23:33:17.903Z,22.27
2019-03-20T23:35:45.896Z,9.80
2019-03-20T23:38:13.948Z,9.10
2019-03-20T23:40:42.084Z,8.63
2019-03-20T23:43:11.331Z,8.38
2019-03-20T23:45:39.308Z,9.98
2019-03-20T23:48:15.140Z,9.23
2019-03-20T23:50:43.233Z,8.48
2019-03-20T23:53:11.196Z,9.38
2019-03-20T23:55:39.171Z,18.30
2019-03-20T23:58:07.151Z,12.58
